Terminal Aerodrome Forecast
Issued by NWS

Home | Current Version | Previous Version | Text Only | Print | Product List | Glossary On
Versions: 1 2 3 4 5 6 7 8 9 10 11 12 13 14 15 16 17
405
FTUS42 KGSP 020533
TAFGMU
TAF
KGMU 020533Z 0206/0306 19007KT P6SM SCT100
     FM021100 23007KT P6SM SCT040
     FM021300 21006KT P6SM SCT035 BKN080
     FM021800 22010G20KT P6SM SCT040 BKN150 PROB30 0218/0224 4SM
      -TSRA OVC040CB
     FM030000 22011KT P6SM VCSH OVC100=

USA.gov is the U.S. government's official web portal to all federal, state and local government web resources and services.